Flight Track Log - Related Links

Times and Time Zones

All times are in EDT time to prevent confusion due to time zone crossing. See the CTL18 flight status page for this flight to view local times or setup timezone preferences in your user account.

Time Position Orientation Groundspeed Altitude Reporting Facility
EDT Latitude Longitude Course Direction KTS MPH feet Rate Location/Type
Tue 06:59:19 PM 42.6642 -83.4494 280° West 111 128 1,600  Level FAA TRACON SMA TRACON (SMA)
Tue 06:59:40 PM 42.6658 -83.4625 280° West 114 131 1,900 1,024 Climbing FAA TRACON SMA TRACON (SMA)
Tue 07:00:00 PM 42.6778 -83.4714 331° Northwest 131 151 2,300 1,077 Climbing FAA TRACON SMA TRACON (SMA)
Tue 07:00:19 PM 42.6878 -83.4744 347° North 121 139 2,600 900 Climbing FAA TRACON SMA TRACON (SMA)
Tue 07:00:40 PM 42.6986 -83.4767 351° North 125 144 2,900 1,024 Climbing FAA TRACON SMA TRACON (SMA)
Tue 07:01:00 PM 42.7122 -83.4800 350° North 128 147 3,300 878 Climbing FAA TRACON SMA TRACON (SMA)
Tue 07:01:21 PM 42.7236 -83.4817 354° North 131 151 3,500 769 Climbing FAA TRACON SMA TRACON (SMA)
Tue 07:01:39 PM 42.7353 -83.4844 350° North 134 154 3,800 615 Climbing FAA TRACON SMA TRACON (SMA)
Tue 07:02:00 PM 42.7497 -83.4875 351° North 136 157 3,900 146 Climbing FAA TRACON SMA TRACON (SMA)
Tue 07:02:20 PM 42.7628 -83.4928 343° North 160 184 3,900  Level FAA TRACON SMA TRACON (SMA)
Tue 07:02:39 PM 42.7744 -83.5014 332° Northwest 156 180 3,900  Level FAA TRACON SMA TRACON (SMA)
Tue 07:03:00 PM 42.7892 -83.5119 332° Northwest 156 180 3,900  Level FAA TRACON SMA TRACON (SMA)
Tue 07:03:19 PM 42.8011 -83.5211 331° Northwest 158 182 3,900  Level FAA TRACON SMA TRACON (SMA)
Tue 07:03:40 PM 42.8131 -83.5297 332° Northwest 158 182 3,900  Level FAA TRACON SMA TRACON (SMA)
Tue 07:04:00 PM 42.8278 -83.5406 332° Northwest 157 181 3,900  Level FAA TRACON SMA TRACON (SMA)
Tue 07:04:19 PM 42.8394 -83.5494 331° Northwest 158 182 3,900  Level FAA TRACON SMA TRACON (SMA)
Tue 07:04:40 PM 42.8514 -83.5589 330° Northwest 158 182 3,900  Level FAA TRACON SMA TRACON (SMA)
Tue 07:04:59 PM 42.8658 -83.5708 329° Northwest 159 183 3,900  Level FAA TRACON SMA TRACON (SMA)
Tue 07:05:20 PM 42.8781 -83.5794 333° Northwest 159 183 3,900  Level FAA TRACON SMA TRACON (SMA)
Tue 07:05:40 PM 42.8900 -83.5883 331° Northwest 159 183 3,900  Level FAA TRACON SMA TRACON (SMA)
Tue 07:05:59 PM 42.9047 -83.5994 331° Northwest 158 182 3,900  Level FAA TRACON SMA TRACON (SMA)
Tue 07:06:20 PM 42.9167 -83.6081 332° Northwest 157 181 3,900  Level FAA TRACON SMA TRACON (SMA)
Tue 07:06:40 PM 42.9283 -83.6172 330° Northwest 157 181 3,900  Level FAA TRACON SMA TRACON (SMA)
Tue 07:07:00 PM 42.9428 -83.6292 329° Northwest 158 182 3,900  Level FAA TRACON SMA TRACON (SMA)
Tue 07:07:19 PM 42.9542 -83.6389 328° Northwest 157 181 3,900  Level FAA TRACON SMA TRACON (SMA)
Tue 07:07:40 PM 42.9656 -83.6481 330° Northwest 156 180 3,900  Level FAA TRACON SMA TRACON (SMA)
Tue 07:08:00 PM 42.9797 -83.6600 328° Northwest 156 180 3,900  Level FAA TRACON SMA TRACON (SMA)
Tue 07:08:19 PM 42.9914 -83.6689 331° Northwest 156 180 3,900  Level FAA TRACON SMA TRACON (SMA)
Tue 07:08:40 PM 43.0031 -83.6775 332° Northwest 155 178 3,900  Level FAA TRACON SMA TRACON (SMA)
Tue 07:08:59 PM 43.0178 -83.6878 333° Northwest 155 178 3,900  Level FAA TRACON SMA TRACON (SMA)
Tue 07:09:20 PM 43.0292 -83.6969 330° Northwest 153 176 3,900  Level FAA TRACON SMA TRACON (SMA)
Tue 07:09:40 PM 43.0408 -83.7058 331° Northwest 155 178 3,900 154 Level FAA TRACON SMA TRACON (SMA)
Tue 07:09:59 PM 43.0556 -83.7172 331° Northwest 156 180 4,000 316 Climbing FAA TRACON SMA TRACON (SMA)
Tue 07:12:00 PM 43.1224 -83.7170 North  Level FlightAware Approximate
Tue 07:19:00 PM 43.3587 -83.9250 324° Northwest  Level Estimated
Tue 07:20:00 PM 43.3938 -83.9519 331° Northwest  Level FlightAware Approximate
Tue 07:21:00 PM 43.4288 -83.9787 331° Northwest  Level FlightAware Approximate
Tue 07:22:00 PM 43.4639 -84.0056 331° Northwest  Level FlightAware Approximate
Tue 07:23:00 PM 43.4955 -84.0395 305° West  Level Estimated
Tue 07:24:00 PM 43.5167 -84.0667 305° West  Level FlightAware Approximate
Tue 07:25:00 PM 43.5329 -84.0796 305° West  Level Estimated
Tue 07:26:00 PM 43.5329 -84.0796 305° West  Level Estimated
Tue 07:27:00 PM 43.5329 -84.0796 305° West  Level Estimated
Tue 07:28:00 PM 43.5329 -84.0796 305° West  Level Estimated
Tue 07:29:00 PM 43.5329 -84.0796 305° West  Level Estimated
Tue 07:30:00 PM 43.5329 -84.0796 305° West  Level Estimated

Login

Don't have an account? Register now (free) for customized features, flight alerts, and more!